sensor_id;sensor_type;location;lat;lon;timestamp;pressure;altitude;pressure_sealevel;temperature;humidity
68594;BME280;55563;52.416;13.548;2023-03-03T00:01:58;101920.97;;;-1.09;100.00
68594;BME280;55563;52.416;13.548;2023-03-03T00:03:59;101924.50;;;-1.10;100.00
68594;BME280;55563;52.416;13.548;2023-03-03T00:06:02;101924.38;;;-1.09;100.00
68594;BME280;55563;52.416;13.548;2023-03-03T00:08:03;101915.81;;;-1.09;100.00
68594;BME280;55563;52.416;13.548;2023-03-03T00:10:04;101918.91;;;-1.06;100.00
68594;BME280;55563;52.416;13.548;2023-03-03T00:12:28;101927.16;;;-1.02;100.00
68594;BME280;55563;52.416;13.548;2023-03-03T00:14:31;101926.22;;;-1.19;100.00
68594;BME280;55563;52.416;13.548;2023-03-03T00:16:36;101930.72;;;-1.21;100.00
68594;BME280;55563;52.416;13.548;2023-03-03T00:18:42;101935.44;;;-1.16;100.00
68594;BME280;55563;52.416;13.548;2023-03-03T00:20:48;101930.38;;;-1.26;100.00
68594;BME280;55563;52.416;13.548;2023-03-03T00:22:50;101940.69;;;-1.26;100.00
68594;BME280;55563;52.416;13.548;2023-03-03T00:24:51;101936.47;;;-1.27;100.00
68594;BME280;55563;52.416;13.548;2023-03-03T00:26:53;101928.22;;;-1.13;100.00
68594;BME280;55563;52.416;13.548;2023-03-03T00:28:55;101922.09;;;-1.12;100.00
68594;BME280;55563;52.416;13.548;2023-03-03T00:30:59;101922.97;;;-1.03;100.00
68594;BME280;55563;52.416;13.548;2023-03-03T00:33:00;101927.03;;;-1.18;100.00
68594;BME280;55563;52.416;13.548;2023-03-03T00:35:18;101925.13;;;-1.16;100.00
68594;BME280;55563;52.416;13.548;2023-03-03T00:37:29;101921.41;;;-1.14;100.00
68594;BME280;55563;52.416;13.548;2023-03-03T00:39:38;101909.56;;;-1.24;100.00
68594;BME280;55563;52.416;13.548;2023-03-03T00:41:39;101909.47;;;-1.15;100.00
68594;BME280;55563;52.416;13.548;2023-03-03T00:43:40;101900.50;;;-1.11;100.00
68594;BME280;55563;52.416;13.548;2023-03-03T00:45:44;101901.50;;;-1.04;100.00
68594;BME280;55563;52.416;13.548;2023-03-03T00:47:46;101895.72;;;-1.06;100.00
68594;BME280;55563;52.416;13.548;2023-03-03T00:49:47;101891.84;;;-1.02;100.00
68594;BME280;55563;52.416;13.548;2023-03-03T00:51:47;101899.59;;;-1.02;100.00
68594;BME280;55563;52.416;13.548;2023-03-03T00:53:48;101897.63;;;-1.08;100.00
68594;BME280;55563;52.416;13.548;2023-03-03T00:55:51;101901.06;;;-0.99;100.00
68594;BME280;55563;52.416;13.548;2023-03-03T00:57:52;101884.97;;;-0.93;100.00
68594;BME280;55563;52.416;13.548;2023-03-03T00:59:57;101878.31;;;-0.96;100.00
68594;BME280;55563;52.416;13.548;2023-03-03T01:01:58;101880.50;;;-1.09;100.00
68594;BME280;55563;52.416;13.548;2023-03-03T01:03:59;101886.25;;;-1.15;100.00
68594;BME280;55563;52.416;13.548;2023-03-03T01:05:59;101889.97;;;-1.17;100.00
68594;BME280;55563;52.416;13.548;2023-03-03T01:08:01;101881.47;;;-1.10;100.00
68594;BME280;55563;52.416;13.548;2023-03-03T01:10:02;101878.75;;;-1.08;100.00
68594;BME280;55563;52.416;13.548;2023-03-03T01:12:03;101884.63;;;-0.98;100.00
68594;BME280;55563;52.416;13.548;2023-03-03T01:14:04;101874.94;;;-1.22;100.00
68594;BME280;55563;52.416;13.548;2023-03-03T01:16:05;101881.56;;;-1.19;100.00
68594;BME280;55563;52.416;13.548;2023-03-03T01:18:06;101874.63;;;-1.19;100.00
68594;BME280;55563;52.416;13.548;2023-03-03T01:20:10;101874.94;;;-1.22;100.00
68594;BME280;55563;52.416;13.548;2023-03-03T01:22:11;101879.34;;;-1.14;100.00
68594;BME280;55563;52.416;13.548;2023-03-03T01:24:12;101872.78;;;-1.09;100.00
68594;BME280;55563;52.416;13.548;2023-03-03T01:26:12;101875.94;;;-1.15;100.00
68594;BME280;55563;52.416;13.548;2023-03-03T01:28:13;101869.47;;;-1.19;100.00
68594;BME280;55563;52.416;13.548;2023-03-03T01:30:14;101865.50;;;-1.13;100.00
68594;BME280;55563;52.416;13.548;2023-03-03T01:32:15;101869.72;;;-1.04;100.00
68594;BME280;55563;52.416;13.548;2023-03-03T01:34:16;101875.34;;;-1.09;100.00
68594;BME280;55563;52.416;13.548;2023-03-03T01:36:23;101875.66;;;-1.12;100.00
68594;BME280;55563;52.416;13.548;2023-03-03T01:38:24;101868.75;;;-1.11;100.00
68594;BME280;55563;52.416;13.548;2023-03-03T01:40:27;101861.84;;;-1.03;100.00
68594;BME280;55563;52.416;13.548;2023-03-03T01:42:29;101855.38;;;-1.33;100.00
68594;BME280;55563;52.416;13.548;2023-03-03T01:44:30;101852.50;;;-1.29;100.00
68594;BME280;55563;52.416;13.548;2023-03-03T01:46:40;101853.72;;;-1.16;100.00
68594;BME280;55563;52.416;13.548;2023-03-03T01:48:45;101846.84;;;-1.07;100.00
68594;BME280;55563;52.416;13.548;2023-03-03T01:51:03;101853.66;;;-0.98;100.00
68594;BME280;55563;52.416;13.548;2023-03-03T01:53:11;101844.81;;;-1.21;100.00
68594;BME280;55563;52.416;13.548;2023-03-03T01:55:19;101846.53;;;-1.30;100.00
68594;BME280;55563;52.416;13.548;2023-03-03T01:57:32;101847.34;;;-1.29;100.00
68594;BME280;55563;52.416;13.548;2023-03-03T01:59:37;101850.50;;;-1.10;100.00
68594;BME280;55563;52.416;13.548;2023-03-03T02:01:41;101849.38;;;-1.15;100.00
68594;BME280;55563;52.416;13.548;2023-03-03T02:03:42;101844.84;;;-1.13;100.00
68594;BME280;55563;52.416;13.548;2023-03-03T02:05:43;101850.88;;;-1.05;100.00
68594;BME280;55563;52.416;13.548;2023-03-03T02:07:45;101843.13;;;-1.05;100.00
68594;BME280;55563;52.416;13.548;2023-03-03T02:09:54;101844.59;;;-1.02;100.00
68594;BME280;55563;52.416;13.548;2023-03-03T02:12:00;101840.91;;;-1.00;100.00
68594;BME280;55563;52.416;13.548;2023-03-03T02:14:03;101836.56;;;-0.99;100.00
68594;BME280;55563;52.416;13.548;2023-03-03T02:16:03;101847.09;;;-0.93;100.00
68594;BME280;55563;52.416;13.548;2023-03-03T02:18:08;101846.75;;;-0.90;100.00
68594;BME280;55563;52.416;13.548;2023-03-03T02:20:15;101856.25;;;-0.98;100.00
68594;BME280;55563;52.416;13.548;2023-03-03T02:22:23;101857.66;;;-1.04;100.00
68594;BME280;55563;52.416;13.548;2023-03-03T02:24:42;101858.16;;;-1.00;100.00
68594;BME280;55563;52.416;13.548;2023-03-03T02:26:44;101856.38;;;-1.00;100.00
68594;BME280;55563;52.416;13.548;2023-03-03T02:28:45;101857.19;;;-0.99;100.00
68594;BME280;55563;52.416;13.548;2023-03-03T02:30:46;101851.09;;;-0.90;100.00
68594;BME280;55563;52.416;13.548;2023-03-03T02:32:47;101845.81;;;-0.89;100.00
68594;BME280;55563;52.416;13.548;2023-03-03T02:34:50;101856.09;;;-0.97;100.00
68594;BME280;55563;52.416;13.548;2023-03-03T02:36:51;101866.56;;;-0.98;100.00
68594;BME280;55563;52.416;13.548;2023-03-03T02:41:41;101863.38;;;-0.92;100.00
68594;BME280;55563;52.416;13.548;2023-03-03T02:43:52;101866.91;;;-0.93;100.00
68594;BME280;55563;52.416;13.548;2023-03-03T02:45:56;101864.00;;;-0.90;100.00
68594;BME280;55563;52.416;13.548;2023-03-03T02:47:58;101862.59;;;-0.84;100.00
68594;BME280;55563;52.416;13.548;2023-03-03T02:49:59;101848.75;;;-0.83;100.00
68594;BME280;55563;52.416;13.548;2023-03-03T02:52:01;101853.41;;;-0.87;100.00
68594;BME280;55563;52.416;13.548;2023-03-03T02:54:04;101859.38;;;-0.86;100.00
68594;BME280;55563;52.416;13.548;2023-03-03T02:56:06;101854.03;;;-0.85;100.00
68594;BME280;55563;52.416;13.548;2023-03-03T02:58:08;101857.63;;;-0.78;100.00
68594;BME280;55563;52.416;13.548;2023-03-03T03:00:10;101861.03;;;-0.77;100.00
68594;BME280;55563;52.416;13.548;2023-03-03T03:02:11;101856.38;;;-0.74;100.00
68594;BME280;55563;52.416;13.548;2023-03-03T03:04:14;101847.66;;;-0.73;100.00
68594;BME280;55563;52.416;13.548;2023-03-03T03:06:19;101841.50;;;-0.72;100.00
68594;BME280;55563;52.416;13.548;2023-03-03T03:08:21;101849.94;;;-0.70;100.00
68594;BME280;55563;52.416;13.548;2023-03-03T03:10:22;101851.84;;;-0.72;100.00
68594;BME280;55563;52.416;13.548;2023-03-03T03:12:24;101859.09;;;-0.75;100.00
68594;BME280;55563;52.416;13.548;2023-03-03T03:14:35;101881.84;;;-0.71;100.00
68594;BME280;55563;52.416;13.548;2023-03-03T03:16:36;101865.72;;;-0.73;100.00
68594;BME280;55563;52.416;13.548;2023-03-03T03:18:36;101863.63;;;-0.77;100.00
68594;BME280;55563;52.416;13.548;2023-03-03T03:20:37;101863.78;;;-0.71;100.00
68594;BME280;55563;52.416;13.548;2023-03-03T03:22:40;101866.72;;;-0.66;100.00
68594;BME280;55563;52.416;13.548;2023-03-03T03:24:42;101864.81;;;-0.64;100.00
68594;BME280;55563;52.416;13.548;2023-03-03T03:26:43;101873.38;;;-0.63;100.00
68594;BME280;55563;52.416;13.548;2023-03-03T03:28:44;101880.78;;;-0.60;100.00
68594;BME280;55563;52.416;13.548;2023-03-03T03:30:45;101890.97;;;-0.59;100.00
68594;BME280;55563;52.416;13.548;2023-03-03T03:32:46;101881.75;;;-0.61;100.00
68594;BME280;55563;52.416;13.548;2023-03-03T03:34:47;101880.94;;;-0.62;100.00
68594;BME280;55563;52.416;13.548;2023-03-03T03:36:48;101869.66;;;-0.61;100.00
68594;BME280;55563;52.416;13.548;2023-03-03T03:38:50;101877.25;;;-0.59;100.00
68594;BME280;55563;52.416;13.548;2023-03-03T03:40:53;101879.34;;;-0.63;100.00
68594;BME280;55563;52.416;13.548;2023-03-03T03:42:54;101880.28;;;-0.64;100.00
68594;BME280;55563;52.416;13.548;2023-03-03T03:44:56;101882.88;;;-0.64;100.00
68594;BME280;55563;52.416;13.548;2023-03-03T03:46:57;101885.47;;;-0.64;100.00
68594;BME280;55563;52.416;13.548;2023-03-03T03:48:58;101890.31;;;-0.61;100.00
68594;BME280;55563;52.416;13.548;2023-03-03T03:51:00;101878.22;;;-0.60;100.00
68594;BME280;55563;52.416;13.548;2023-03-03T03:53:02;101875.00;;;-0.54;100.00
68594;BME280;55563;52.416;13.548;2023-03-03T03:55:04;101875.00;;;-0.54;100.00
68594;BME280;55563;52.416;13.548;2023-03-03T03:57:05;101868.22;;;-0.55;100.00
68594;BME280;55563;52.416;13.548;2023-03-03T03:59:06;101868.06;;;-0.54;100.00
68594;BME280;55563;52.416;13.548;2023-03-03T04:01:07;101863.88;;;-0.55;100.00
68594;BME280;55563;52.416;13.548;2023-03-03T04:03:13;101863.72;;;-0.53;100.00
68594;BME280;55563;52.416;13.548;2023-03-03T04:05:15;101860.34;;;-0.54;100.00
68594;BME280;55563;52.416;13.548;2023-03-03T04:07:17;101844.03;;;-0.54;100.00
68594;BME280;55563;52.416;13.548;2023-03-03T04:09:18;101847.09;;;-0.51;100.00
68594;BME280;55563;52.416;13.548;2023-03-03T04:11:20;101849.81;;;-0.52;100.00
68594;BME280;55563;52.416;13.548;2023-03-03T04:13:21;101848.72;;;-0.50;100.00
68594;BME280;55563;52.416;13.548;2023-03-03T04:15:23;101842.41;;;-0.55;100.00
68594;BME280;55563;52.416;13.548;2023-03-03T04:17:24;101838.69;;;-0.53;100.00
68594;BME280;55563;52.416;13.548;2023-03-03T04:19:25;101842.75;;;-0.50;100.00
68594;BME280;55563;52.416;13.548;2023-03-03T04:21:26;101837.44;;;-0.49;100.00
68594;BME280;55563;52.416;13.548;2023-03-03T04:23:29;101835.00;;;-0.50;100.00
68594;BME280;55563;52.416;13.548;2023-03-03T04:25:30;101839.50;;;-0.52;100.00
68594;BME280;55563;52.416;13.548;2023-03-03T04:27:32;101832.75;;;-0.53;100.00
68594;BME280;55563;52.416;13.548;2023-03-03T04:29:34;101834.50;;;-0.54;100.00
68594;BME280;55563;52.416;13.548;2023-03-03T04:31:35;101833.53;;;-0.53;100.00
68594;BME280;55563;52.416;13.548;2023-03-03T04:33:38;101837.38;;;-0.57;100.00
68594;BME280;55563;52.416;13.548;2023-03-03T04:35:39;101850.75;;;-0.61;100.00
68594;BME280;55563;52.416;13.548;2023-03-03T04:37:40;101842.69;;;-0.66;100.00
68594;BME280;55563;52.416;13.548;2023-03-03T04:39:41;101841.72;;;-0.65;100.00
68594;BME280;55563;52.416;13.548;2023-03-03T04:41:42;101828.81;;;-0.65;100.00
68594;BME280;55563;52.416;13.548;2023-03-03T04:43:43;101829.75;;;-0.66;100.00
68594;BME280;55563;52.416;13.548;2023-03-03T04:45:46;101824.31;;;-0.63;100.00
68594;BME280;55563;52.416;13.548;2023-03-03T04:47:47;101834.44;;;-0.70;100.00
68594;BME280;55563;52.416;13.548;2023-03-03T04:49:48;101837.22;;;-0.63;100.00
68594;BME280;55563;52.416;13.548;2023-03-03T04:51:48;101842.06;;;-0.60;100.00
68594;BME280;55563;52.416;13.548;2023-03-03T04:53:50;101851.09;;;-0.64;100.00
68594;BME280;55563;52.416;13.548;2023-03-03T04:55:52;101856.41;;;-0.66;100.00
68594;BME280;55563;52.416;13.548;2023-03-03T04:57:54;101848.34;;;-0.63;100.00
68594;BME280;55563;52.416;13.548;2023-03-03T04:59:54;101843.84;;;-0.61;100.00
68594;BME280;55563;52.416;13.548;2023-03-03T05:01:56;101844.75;;;-0.70;100.00
68594;BME280;55563;52.416;13.548;2023-03-03T05:03:56;101847.19;;;-0.68;100.00
68594;BME280;55563;52.416;13.548;2023-03-03T05:05:57;101841.19;;;-0.77;100.00
68594;BME280;55563;52.416;13.548;2023-03-03T05:07:58;101848.81;;;-0.67;100.00
68594;BME280;55563;52.416;13.548;2023-03-03T05:09:59;101849.78;;;-0.68;100.00
68594;BME280;55563;52.416;13.548;2023-03-03T05:11:59;101834.25;;;-0.76;100.00
68594;BME280;55563;52.416;13.548;2023-03-03T05:14:00;101833.00;;;-0.72;100.00
68594;BME280;55563;52.416;13.548;2023-03-03T05:16:03;101827.38;;;-0.68;100.00
68594;BME280;55563;52.416;13.548;2023-03-03T05:18:03;101828.13;;;-0.75;100.00
68594;BME280;55563;52.416;13.548;2023-03-03T05:20:05;101828.13;;;-0.75;100.00
68594;BME280;55563;52.416;13.548;2023-03-03T05:22:07;101828.06;;;-0.92;100.00
68594;BME280;55563;52.416;13.548;2023-03-03T05:24:10;101840.31;;;-0.85;100.00
68594;BME280;55563;52.416;13.548;2023-03-03T05:26:11;101836.31;;;-0.80;100.00
68594;BME280;55563;52.416;13.548;2023-03-03T05:28:11;101832.28;;;-0.82;100.00
68594;BME280;55563;52.416;13.548;2023-03-03T05:30:12;101835.38;;;-0.79;100.00
68594;BME280;55563;52.416;13.548;2023-03-03T05:32:13;101842.28;;;-0.88;100.00
68594;BME280;55563;52.416;13.548;2023-03-03T05:34:14;101846.47;;;-0.86;100.00
68594;BME280;55563;52.416;13.548;2023-03-03T05:36:15;101838.28;;;-0.82;100.00
68594;BME280;55563;52.416;13.548;2023-03-03T05:38:16;101842.41;;;-0.89;100.00
68594;BME280;55563;52.416;13.548;2023-03-03T05:40:17;101847.56;;;-0.89;100.00
68594;BME280;55563;52.416;13.548;2023-03-03T05:42:18;101850.31;;;-0.91;100.00
68594;BME280;55563;52.416;13.548;2023-03-03T05:44:19;101858.38;;;-0.85;100.00
68594;BME280;55563;52.416;13.548;2023-03-03T05:46:19;101849.69;;;-0.84;100.00
68594;BME280;55563;52.416;13.548;2023-03-03T05:48:20;101845.47;;;-0.94;100.00
68594;BME280;55563;52.416;13.548;2023-03-03T05:50:23;101859.91;;;-1.01;100.00
68594;BME280;55563;52.416;13.548;2023-03-03T05:52:24;101866.00;;;-1.10;100.00
68594;BME280;55563;52.416;13.548;2023-03-03T05:54:24;101876.22;;;-1.00;100.00
68594;BME280;55563;52.416;13.548;2023-03-03T05:56:25;101875.91;;;-0.97;100.00
68594;BME280;55563;52.416;13.548;2023-03-03T05:58:26;101879.00;;;-0.94;100.00
68594;BME280;55563;52.416;13.548;2023-03-03T06:00:27;101871.94;;;-0.92;100.00
68594;BME280;55563;52.416;13.548;2023-03-03T06:02:27;101876.28;;;-0.92;100.00
68594;BME280;55563;52.416;13.548;2023-03-03T06:04:28;101870.59;;;-0.96;100.00
68594;BME280;55563;52.416;13.548;2023-03-03T06:06:29;101871.13;;;-0.92;100.00
68594;BME280;55563;52.416;13.548;2023-03-03T06:08:30;101862.38;;;-0.91;100.00
68594;BME280;55563;52.416;13.548;2023-03-03T06:10:32;101874.78;;;-0.95;100.00
68594;BME280;55563;52.416;13.548;2023-03-03T06:12:37;101876.06;;;-0.99;100.00
68594;BME280;55563;52.416;13.548;2023-03-03T06:14:38;101872.50;;;-1.23;100.00
68594;BME280;55563;52.416;13.548;2023-03-03T06:16:39;101876.47;;;-1.11;100.00
68594;BME280;55563;52.416;13.548;2023-03-03T06:18:40;101870.78;;;-1.15;100.00
68594;BME280;55563;52.416;13.548;2023-03-03T06:20:41;101875.16;;;-1.15;100.00
68594;BME280;55563;52.416;13.548;2023-03-03T06:22:42;101875.84;;;-1.05;100.00
68594;BME280;55563;52.416;13.548;2023-03-03T06:24:42;101882.00;;;-1.24;100.00
68594;BME280;55563;52.416;13.548;2023-03-03T06:26:43;101885.84;;;-1.28;100.00
68594;BME280;55563;52.416;13.548;2023-03-03T06:28:44;101883.94;;;-1.26;100.00
68594;BME280;55563;52.416;13.548;2023-03-03T06:30:44;101886.78;;;-1.11;100.00
68594;BME280;55563;52.416;13.548;2023-03-03T06:32:45;101890.81;;;-1.09;100.00
68594;BME280;55563;52.416;13.548;2023-03-03T06:34:46;101887.28;;;-1.08;100.00
68594;BME280;55563;52.416;13.548;2023-03-03T06:36:47;101888.28;;;-1.01;100.00
68594;BME280;55563;52.416;13.548;2023-03-03T06:38:48;101885.97;;;-1.12;100.00
68594;BME280;55563;52.416;13.548;2023-03-03T06:40:48;101892.78;;;-1.11;100.00
68594;BME280;55563;52.416;13.548;2023-03-03T06:42:49;101894.59;;;-1.03;100.00
68594;BME280;55563;52.416;13.548;2023-03-03T06:44:50;101896.56;;;-0.97;100.00
68594;BME280;55563;52.416;13.548;2023-03-03T06:46:51;101895.75;;;-0.98;100.00
68594;BME280;55563;52.416;13.548;2023-03-03T06:48:52;101897.84;;;-1.01;100.00
68594;BME280;55563;52.416;13.548;2023-03-03T06:50:53;101898.63;;;-1.01;100.00
68594;BME280;55563;52.416;13.548;2023-03-03T06:53:06;101903.00;;;-1.01;100.00
68594;BME280;55563;52.416;13.548;2023-03-03T06:55:12;101907.25;;;-1.10;100.00
68594;BME280;55563;52.416;13.548;2023-03-03T06:57:24;101910.06;;;-1.03;100.00
68594;BME280;55563;52.416;13.548;2023-03-03T06:59:26;101919.78;;;-0.97;100.00
68594;BME280;55563;52.416;13.548;2023-03-03T07:01:30;101925.91;;;-0.98;100.00
68594;BME280;55563;52.416;13.548;2023-03-03T07:03:34;101926.84;;;-0.99;100.00
68594;BME280;55563;52.416;13.548;2023-03-03T07:05:35;101929.56;;;-1.01;100.00
68594;BME280;55563;52.416;13.548;2023-03-03T07:07:36;101931.66;;;-1.04;100.00
68594;BME280;55563;52.416;13.548;2023-03-03T07:09:36;101939.28;;;-0.95;100.00
68594;BME280;55563;52.416;13.548;2023-03-03T07:11:37;101937.69;;;-0.96;100.00
68594;BME280;55563;52.416;13.548;2023-03-03T07:13:44;101927.66;;;-0.99;100.00
68594;BME280;55563;52.416;13.548;2023-03-03T07:15:47;101936.66;;;-1.03;100.00
68594;BME280;55563;52.416;13.548;2023-03-03T07:17:52;101931.19;;;-1.00;100.00
68594;BME280;55563;52.416;13.548;2023-03-03T07:19:54;101934.59;;;-0.99;100.00
68594;BME280;55563;52.416;13.548;2023-03-03T07:21:55;101927.22;;;-0.94;100.00
68594;BME280;55563;52.416;13.548;2023-03-03T07:23:56;101928.97;;;-0.95;100.00
68594;BME280;55563;52.416;13.548;2023-03-03T07:25:57;101933.84;;;-0.92;100.00
68594;BME280;55563;52.416;13.548;2023-03-03T07:28:06;101930.50;;;-0.84;100.00
68594;BME280;55563;52.416;13.548;2023-03-03T07:32:26;101934.72;;;-0.83;100.00
68594;BME280;55563;52.416;13.548;2023-03-03T07:34:37;101943.75;;;-0.79;100.00
68594;BME280;55563;52.416;13.548;2023-03-03T07:36:39;101948.94;;;-0.79;100.00
68594;BME280;55563;52.416;13.548;2023-03-03T07:38:41;101946.94;;;-0.85;100.00
68594;BME280;55563;52.416;13.548;2023-03-03T07:40:49;101940.63;;;-0.91;100.00
68594;BME280;55563;52.416;13.548;2023-03-03T07:42:50;101949.34;;;-0.92;100.00
68594;BME280;55563;52.416;13.548;2023-03-03T07:45:00;101950.06;;;-0.99;100.00
68594;BME280;55563;52.416;13.548;2023-03-03T07:47:17;101959.31;;;-0.97;100.00
68594;BME280;55563;52.416;13.548;2023-03-03T07:49:28;101948.81;;;-0.95;100.00
68594;BME280;55563;52.416;13.548;2023-03-03T07:51:39;101947.00;;;-1.03;100.00
68594;BME280;55563;52.416;13.548;2023-03-03T07:53:42;101953.88;;;-1.11;100.00
68594;BME280;55563;52.416;13.548;2023-03-03T07:55:43;101953.50;;;-0.91;100.00
68594;BME280;55563;52.416;13.548;2023-03-03T07:57:45;101956.31;;;-0.84;100.00
68594;BME280;55563;52.416;13.548;2023-03-03T07:59:48;101959.50;;;-0.90;100.00
68594;BME280;55563;52.416;13.548;2023-03-03T08:01:53;101967.75;;;-0.86;100.00
68594;BME280;55563;52.416;13.548;2023-03-03T08:03:56;101959.03;;;-0.85;100.00
68594;BME280;55563;52.416;13.548;2023-03-03T08:05:57;101953.50;;;-0.91;100.00
68594;BME280;55563;52.416;13.548;2023-03-03T08:08:13;101954.72;;;-1.03;100.00
68594;BME280;55563;52.416;13.548;2023-03-03T08:10:38;101962.44;;;-0.85;100.00
68594;BME280;55563;52.416;13.548;2023-03-03T08:12:42;101959.56;;;-0.82;100.00
68594;BME280;55563;52.416;13.548;2023-03-03T08:15:24;101961.88;;;-0.71;100.00
68594;BME280;55563;52.416;13.548;2023-03-03T08:17:35;101961.59;;;-0.68;100.00
68594;BME280;55563;52.416;13.548;2023-03-03T08:19:36;101956.81;;;-0.80;100.00
68594;BME280;55563;52.416;13.548;2023-03-03T08:21:37;101938.97;;;-0.74;100.00
68594;BME280;55563;52.416;13.548;2023-03-03T08:23:38;101954.03;;;-0.87;100.00
68594;BME280;55563;52.416;13.548;2023-03-03T08:25:39;101953.78;;;-0.76;100.00
68594;BME280;55563;52.416;13.548;2023-03-03T08:27:41;101957.34;;;-0.77;100.00
68594;BME280;55563;52.416;13.548;2023-03-03T08:29:42;101944.44;;;-0.77;100.00
68594;BME280;55563;52.416;13.548;2023-03-03T08:31:43;101944.66;;;-0.62;100.00
68594;BME280;55563;52.416;13.548;2023-03-03T08:33:44;101951.19;;;-0.50;100.00
68594;BME280;55563;52.416;13.548;2023-03-03T08:35:45;101965.72;;;-0.49;100.00
68594;BME280;55563;52.416;13.548;2023-03-03T08:37:46;101968.91;;;-0.55;100.00
68594;BME280;55563;52.416;13.548;2023-03-03T08:39:47;101947.66;;;-0.49;100.00
68594;BME280;55563;52.416;13.548;2023-03-03T08:41:47;101951.22;;;-0.42;100.00
68594;BME280;55563;52.416;13.548;2023-03-03T08:43:48;101953.56;;;-0.31;100.00
68594;BME280;55563;52.416;13.548;2023-03-03T08:45:51;101951.16;;;-0.24;100.00
68594;BME280;55563;52.416;13.548;2023-03-03T08:47:52;101963.91;;;-0.23;100.00
68594;BME280;55563;52.416;13.548;2023-03-03T08:49:53;101963.84;;;-0.39;100.00
68594;BME280;55563;52.416;13.548;2023-03-03T08:51:53;101958.50;;;-0.37;100.00
68594;BME280;55563;52.416;13.548;2023-03-03T08:53:54;101963.88;;;-0.31;100.00
68594;BME280;55563;52.416;13.548;2023-03-03T08:55:55;101965.97;;;-0.34;100.00
68594;BME280;55563;52.416;13.548;2023-03-03T08:57:56;101965.53;;;-0.22;100.00
68594;BME280;55563;52.416;13.548;2023-03-03T08:59:57;101965.06;;;-0.17;100.00
68594;BME280;55563;52.416;13.548;2023-03-03T09:01:57;101972.19;;;-0.19;100.00
68594;BME280;55563;52.416;13.548;2023-03-03T09:03:58;101965.41;;;-0.20;100.00
68594;BME280;55563;52.416;13.548;2023-03-03T09:05:59;101968.16;;;-0.14;100.00
68594;BME280;55563;52.416;13.548;2023-03-03T09:08:00;101964.00;;;-0.07;100.00
68594;BME280;55563;52.416;13.548;2023-03-03T09:10:02;101961.03;;;-0.20;100.00
68594;BME280;55563;52.416;13.548;2023-03-03T09:12:25;101949.25;;;-0.14;100.00
68594;BME280;55563;52.416;13.548;2023-03-03T09:14:28;101951.88;;;-0.06;100.00
68594;BME280;55563;52.416;13.548;2023-03-03T09:16:34;101942.53;;;0.01;100.00
68594;BME280;55563;52.416;13.548;2023-03-03T09:18:37;101957.41;;;0.07;100.00
68594;BME280;55563;52.416;13.548;2023-03-03T09:20:44;101953.06;;;0.08;100.00
68594;BME280;55563;52.416;13.548;2023-03-03T09:22:45;101953.91;;;0.24;100.00
68594;BME280;55563;52.416;13.548;2023-03-03T09:24:46;101944.22;;;0.26;100.00
68594;BME280;55563;52.416;13.548;2023-03-03T09:26:48;101941.63;;;0.26;100.00
68594;BME280;55563;52.416;13.548;2023-03-03T09:28:59;101940.34;;;0.22;100.00
68594;BME280;55563;52.416;13.548;2023-03-03T09:31:20;101948.44;;;0.27;100.00
68594;BME280;55563;52.416;13.548;2023-03-03T09:33:41;101951.50;;;0.31;100.00
68594;BME280;55563;52.416;13.548;2023-03-03T09:35:42;101944.03;;;0.20;100.00
68594;BME280;55563;52.416;13.548;2023-03-03T09:37:46;101957.31;;;0.33;100.00
68594;BME280;55563;52.416;13.548;2023-03-03T09:39:53;101954.75;;;0.33;100.00
68594;BME280;55563;52.416;13.548;2023-03-03T09:44:39;101961.97;;;0.13;100.00
68594;BME280;55563;52.416;13.548;2023-03-03T09:49:32;101949.25;;;0.36;100.00
68594;BME280;55563;52.416;13.548;2023-03-03T09:51:58;101961.53;;;0.50;100.00
68594;BME280;55563;52.416;13.548;2023-03-03T09:56:43;101964.00;;;1.08;100.00
68594;BME280;55563;52.416;13.548;2023-03-03T10:09:00;101933.09;;;0.99;100.00
68594;BME280;55563;52.416;13.548;2023-03-03T10:11:23;101931.16;;;1.09;100.00
68594;BME280;55563;52.416;13.548;2023-03-03T10:13:45;101935.50;;;1.24;100.00
68594;BME280;55563;52.416;13.548;2023-03-03T10:20:58;101946.63;;;1.25;100.00
68594;BME280;55563;52.416;13.548;2023-03-03T10:23:33;101939.53;;;1.27;100.00
68594;BME280;55563;52.416;13.548;2023-03-03T10:25:42;101936.81;;;1.12;100.00
68594;BME280;55563;52.416;13.548;2023-03-03T10:30:43;101934.75;;;1.55;100.00
68594;BME280;55563;52.416;13.548;2023-03-03T10:32:51;101934.88;;;1.69;100.00
68594;BME280;55563;52.416;13.548;2023-03-03T10:42:59;101933.53;;;1.82;100.00
68594;BME280;55563;52.416;13.548;2023-03-03T10:47:39;101935.38;;;1.65;100.00
68594;BME280;55563;52.416;13.548;2023-03-03T10:50:13;101936.28;;;1.80;100.00
68594;BME280;55563;52.416;13.548;2023-03-03T11:04:28;101935.97;;;2.14;100.00
68594;BME280;55563;52.416;13.548;2023-03-03T11:07:01;101938.69;;;1.90;100.00
68594;BME280;55563;52.416;13.548;2023-03-03T11:11:37;101940.41;;;1.97;100.00
68594;BME280;55563;52.416;13.548;2023-03-03T11:14:11;101937.00;;;2.28;100.00
68594;BME280;55563;52.416;13.548;2023-03-03T11:19:11;101930.03;;;2.28;100.00
68594;BME280;55563;52.416;13.548;2023-03-03T11:21:25;101931.59;;;2.37;100.00
68594;BME280;55563;52.416;13.548;2023-03-03T11:33:47;101933.84;;;2.40;100.00
68594;BME280;55563;52.416;13.548;2023-03-03T11:36:08;101931.44;;;2.39;100.00
68594;BME280;55563;52.416;13.548;2023-03-03T11:41:15;101935.06;;;2.30;100.00
68594;BME280;55563;52.416;13.548;2023-03-03T11:43:26;101937.59;;;2.38;100.00
68594;BME280;55563;52.416;13.548;2023-03-03T11:45:41;101928.84;;;2.61;100.00